sensor_id;sensor_type;location;lat;lon;timestamp;pressure;altitude;pressure_sealevel;temperature;humidity
29215;BME280;16252;49.816;7.964;2022-12-07T00:00:40;100187.19;;;6.20;65.53
29215;BME280;16252;49.816;7.964;2022-12-07T00:03:06;100078.97;;;5.58;65.45
29215;BME280;16252;49.816;7.964;2022-12-07T00:05:31;100144.44;;;6.08;65.53
29215;BME280;16252;49.816;7.964;2022-12-07T00:07:56;100159.00;;;6.17;65.43
29215;BME280;16252;49.816;7.964;2022-12-07T00:10:21;100151.72;;;6.21;65.47
29215;BME280;16252;49.816;7.964;2022-12-07T00:12:47;100152.22;;;6.27;65.44
29215;BME280;16252;49.816;7.964;2022-12-07T00:15:12;100146.66;;;6.32;65.33
29215;BME280;16252;49.816;7.964;2022-12-07T00:17:37;100167.91;;;6.48;65.21
29215;BME280;16252;49.816;7.964;2022-12-07T00:20:03;100162.56;;;6.48;65.31
29215;BME280;16252;49.816;7.964;2022-12-07T00:22:29;100142.09;;;6.34;65.17
29215;BME280;16252;49.816;7.964;2022-12-07T00:24:54;100092.06;;;6.11;65.25
29215;BME280;16252;49.816;7.964;2022-12-07T00:27:19;100131.22;;;6.39;65.27
29215;BME280;16252;49.816;7.964;2022-12-07T00:29:44;100133.03;;;6.38;65.18
29215;BME280;16252;49.816;7.964;2022-12-07T00:32:10;100114.25;;;6.41;65.32
29215;BME280;16252;49.816;7.964;2022-12-07T00:34:35;100132.81;;;6.57;65.21
29215;BME280;16252;49.816;7.964;2022-12-07T00:37:00;100144.13;;;6.61;65.21
29215;BME280;16252;49.816;7.964;2022-12-07T00:39:26;100166.44;;;6.74;65.20
29215;BME280;16252;49.816;7.964;2022-12-07T00:41:51;100133.66;;;6.58;65.11
29215;BME280;16252;49.816;7.964;2022-12-07T00:44:16;100150.81;;;6.68;65.05
29215;BME280;16252;49.816;7.964;2022-12-07T00:46:41;100087.47;;;6.44;65.08
29215;BME280;16252;49.816;7.964;2022-12-07T00:49:07;100003.91;;;5.88;64.99
29215;BME280;16252;49.816;7.964;2022-12-07T00:51:32;100143.84;;;6.81;64.94
29215;BME280;16252;49.816;7.964;2022-12-07T00:53:57;100116.34;;;6.66;65.05
29215;BME280;16252;49.816;7.964;2022-12-07T00:56:25;100133.94;;;6.83;64.91
29215;BME280;16252;49.816;7.964;2022-12-07T01:01:21;100119.41;;;6.75;64.41
29215;BME280;16252;49.816;7.964;2022-12-07T01:03:47;100118.75;;;6.71;64.70
29215;BME280;16252;49.816;7.964;2022-12-07T01:06:20;100090.38;;;6.56;64.68
29215;BME280;16252;49.816;7.964;2022-12-07T01:08:46;100121.81;;;6.79;64.85
29215;BME280;16252;49.816;7.964;2022-12-07T01:11:14;100139.78;;;6.90;64.60
29215;BME280;16252;49.816;7.964;2022-12-07T01:13:39;100141.66;;;6.88;64.58
29215;BME280;16252;49.816;7.964;2022-12-07T01:16:06;100144.34;;;6.88;64.68
29215;BME280;16252;49.816;7.964;2022-12-07T01:18:34;100136.34;;;6.88;64.43
29215;BME280;16252;49.816;7.964;2022-12-07T01:21:00;100133.81;;;6.86;64.53
29215;BME280;16252;49.816;7.964;2022-12-07T01:23:26;100124.66;;;6.76;64.49
29215;BME280;16252;49.816;7.964;2022-12-07T01:26:00;100100.47;;;6.65;64.29
29215;BME280;16252;49.816;7.964;2022-12-07T01:28:25;100096.44;;;6.58;64.40
29215;BME280;16252;49.816;7.964;2022-12-07T01:33:30;100127.72;;;6.84;64.29
29215;BME280;16252;49.816;7.964;2022-12-07T01:36:03;100095.16;;;6.65;64.30
29215;BME280;16252;49.816;7.964;2022-12-07T01:38:30;100129.84;;;6.78;64.39
29215;BME280;16252;49.816;7.964;2022-12-07T01:40:57;100133.56;;;6.75;64.59
29215;BME280;16252;49.816;7.964;2022-12-07T01:43:24;100133.56;;;6.75;64.59
29215;BME280;16252;49.816;7.964;2022-12-07T01:45:51;100094.81;;;6.55;64.69
29215;BME280;16252;49.816;7.964;2022-12-07T01:48:20;100135.38;;;6.75;64.63
29215;BME280;16252;49.816;7.964;2022-12-07T01:50:48;100144.31;;;6.73;64.64
29215;BME280;16252;49.816;7.964;2022-12-07T01:53:15;100072.59;;;6.26;64.75
29215;BME280;16252;49.816;7.964;2022-12-07T01:55:44;100055.97;;;6.22;64.64
29215;BME280;16252;49.816;7.964;2022-12-07T02:00:39;100105.28;;;6.58;64.88
29215;BME280;16252;49.816;7.964;2022-12-07T02:03:13;100134.66;;;6.87;64.58
29215;BME280;16252;49.816;7.964;2022-12-07T02:05:41;100109.72;;;6.73;64.84
29215;BME280;16252;49.816;7.964;2022-12-07T02:08:08;100064.94;;;6.51;64.71
29215;BME280;16252;49.816;7.964;2022-12-07T02:10:34;100105.06;;;6.77;64.69
29215;BME280;16252;49.816;7.964;2022-12-07T02:13:06;100118.44;;;6.91;64.70
29215;BME280;16252;49.816;7.964;2022-12-07T02:29:21;100100.97;;;7.02;64.42
29215;BME280;16252;49.816;7.964;2022-12-07T02:32:40;100073.75;;;6.82;64.49
29215;BME280;16252;49.816;7.964;2022-12-07T02:34:52;100114.34;;;7.00;64.71
29215;BME280;16252;49.816;7.964;2022-12-07T02:37:25;100116.94;;;7.02;64.80
29215;BME280;16252;49.816;7.964;2022-12-07T02:40:03;100092.41;;;6.97;64.78
29215;BME280;16252;49.816;7.964;2022-12-07T02:42:36;100087.09;;;6.97;64.68
29215;BME280;16252;49.816;7.964;2022-12-07T02:45:05;100096.97;;;7.09;64.67
29215;BME280;16252;49.816;7.964;2022-12-07T02:47:33;100110.56;;;7.19;64.72
29215;BME280;16252;49.816;7.964;2022-12-07T02:49:59;100102.00;;;7.13;64.64
29215;BME280;16252;49.816;7.964;2022-12-07T02:52:24;100093.00;;;7.16;64.75
29215;BME280;16252;49.816;7.964;2022-12-07T02:54:50;100089.56;;;7.14;64.56
29215;BME280;16252;49.816;7.964;2022-12-07T03:00:16;100073.59;;;7.14;64.42
29215;BME280;16252;49.816;7.964;2022-12-07T03:02:48;100088.16;;;7.23;64.51
29215;BME280;16252;49.816;7.964;2022-12-07T03:08:13;100087.13;;;7.25;64.35
29215;BME280;16252;49.816;7.964;2022-12-07T03:11:03;100087.13;;;7.25;64.33
29215;BME280;16252;49.816;7.964;2022-12-07T03:13:39;100091.88;;;7.20;64.55
29215;BME280;16252;49.816;7.964;2022-12-07T03:16:21;100073.44;;;7.17;64.42
29215;BME280;16252;49.816;7.964;2022-12-07T03:18:52;100071.91;;;7.13;64.57
29215;BME280;16252;49.816;7.964;2022-12-07T03:21:23;100084.66;;;7.22;64.59
29215;BME280;16252;49.816;7.964;2022-12-07T03:23:53;100044.34;;;7.00;64.42
29215;BME280;16252;49.816;7.964;2022-12-07T03:26:22;100063.25;;;7.09;64.48
29215;BME280;16252;49.816;7.964;2022-12-07T03:28:52;100057.53;;;7.01;64.42
29215;BME280;16252;49.816;7.964;2022-12-07T03:31:30;100063.91;;;7.13;64.45
29215;BME280;16252;49.816;7.964;2022-12-07T03:34:11;99981.88;;;6.62;64.38
29215;BME280;16252;49.816;7.964;2022-12-07T03:39:56;100074.94;;;7.21;64.39
29215;BME280;16252;49.816;7.964;2022-12-07T03:42:24;100047.06;;;6.98;64.55
29215;BME280;16252;49.816;7.964;2022-12-07T03:44:49;100075.50;;;7.12;64.54
29215;BME280;16252;49.816;7.964;2022-12-07T03:50:07;100020.09;;;6.90;64.45
29215;BME280;16252;49.816;7.964;2022-12-07T03:52:45;100063.63;;;7.18;64.27
29215;BME280;16252;49.816;7.964;2022-12-07T03:55:28;100049.94;;;7.09;64.31
29215;BME280;16252;49.816;7.964;2022-12-07T03:57:59;100036.63;;;6.95;64.62
29215;BME280;16252;49.816;7.964;2022-12-07T04:00:26;100064.19;;;7.08;64.82
29215;BME280;16252;49.816;7.964;2022-12-07T04:02:52;100069.44;;;7.10;64.65
29215;BME280;16252;49.816;7.964;2022-12-07T04:05:18;100072.75;;;7.13;64.66
29215;BME280;16252;49.816;7.964;2022-12-07T04:07:43;100068.28;;;7.14;64.55
29215;BME280;16252;49.816;7.964;2022-12-07T04:10:09;100076.09;;;7.17;64.78
29215;BME280;16252;49.816;7.964;2022-12-07T04:12:35;100062.50;;;7.22;64.79
29215;BME280;16252;49.816;7.964;2022-12-07T04:15:00;100057.28;;;7.20;64.71
29215;BME280;16252;49.816;7.964;2022-12-07T04:17:25;100060.91;;;7.19;64.67
29215;BME280;16252;49.816;7.964;2022-12-07T04:19:51;100060.91;;;7.19;64.84
29215;BME280;16252;49.816;7.964;2022-12-07T04:22:16;100067.34;;;7.29;64.50
29215;BME280;16252;49.816;7.964;2022-12-07T04:24:41;100061.66;;;7.35;64.64
29215;BME280;16252;49.816;7.964;2022-12-07T04:27:06;100067.03;;;7.34;64.42
29215;BME280;16252;49.816;7.964;2022-12-07T04:29:32;100064.31;;;7.35;64.45
29215;BME280;16252;49.816;7.964;2022-12-07T04:31:57;100050.50;;;7.29;64.43
29215;BME280;16252;49.816;7.964;2022-12-07T04:34:22;100058.91;;;7.37;64.40
29215;BME280;16252;49.816;7.964;2022-12-07T04:36:48;100047.00;;;7.28;64.54
29215;BME280;16252;49.816;7.964;2022-12-07T04:39:25;100074.09;;;7.49;64.32
29215;BME280;16252;49.816;7.964;2022-12-07T04:41:51;100053.94;;;7.31;64.44
29215;BME280;16252;49.816;7.964;2022-12-07T04:44:17;100059.75;;;7.37;64.41
29215;BME280;16252;49.816;7.964;2022-12-07T04:46:43;100031.78;;;7.16;64.58
29215;BME280;16252;49.816;7.964;2022-12-07T04:49:09;100044.72;;;7.22;64.56
29215;BME280;16252;49.816;7.964;2022-12-07T04:51:35;100038.56;;;7.22;64.49
29215;BME280;16252;49.816;7.964;2022-12-07T04:54:00;100070.00;;;7.44;64.40
29215;BME280;16252;49.816;7.964;2022-12-07T04:56:25;100066.13;;;7.35;64.36
29215;BME280;16252;49.816;7.964;2022-12-07T04:58:52;100071.72;;;7.45;64.55
29215;BME280;16252;49.816;7.964;2022-12-07T05:01:18;100050.44;;;7.30;64.42
29215;BME280;16252;49.816;7.964;2022-12-07T05:03:44;100063.06;;;7.41;64.52
29215;BME280;16252;49.816;7.964;2022-12-07T05:06:11;100045.19;;;7.29;64.47
29215;BME280;16252;49.816;7.964;2022-12-07T05:08:36;100033.13;;;7.23;64.55
29215;BME280;16252;49.816;7.964;2022-12-07T05:11:03;100064.03;;;7.40;64.36
29215;BME280;16252;49.816;7.964;2022-12-07T05:13:29;100028.84;;;7.21;64.42
29215;BME280;16252;49.816;7.964;2022-12-07T05:15:55;100041.88;;;7.25;64.47
29215;BME280;16252;49.816;7.964;2022-12-07T05:18:20;100060.78;;;7.35;64.50
29215;BME280;16252;49.816;7.964;2022-12-07T05:20:45;100038.38;;;7.25;64.60
29215;BME280;16252;49.816;7.964;2022-12-07T05:23:11;100050.50;;;7.29;64.55
29215;BME280;16252;49.816;7.964;2022-12-07T05:25:37;100043.69;;;7.25;64.80
29215;BME280;16252;49.816;7.964;2022-12-07T05:28:03;100039.78;;;7.16;64.64
29215;BME280;16252;49.816;7.964;2022-12-07T05:30:28;100045.59;;;7.23;64.52
29215;BME280;16252;49.816;7.964;2022-12-07T05:32:53;100062.69;;;7.33;64.58
29215;BME280;16252;49.816;7.964;2022-12-07T05:35:19;100032.56;;;7.18;64.61
29215;BME280;16252;49.816;7.964;2022-12-07T05:37:45;100073.81;;;7.40;64.50
29215;BME280;16252;49.816;7.964;2022-12-07T05:40:11;100064.88;;;7.41;64.55
29215;BME280;16252;49.816;7.964;2022-12-07T05:42:37;100035.03;;;7.21;64.59
29215;BME280;16252;49.816;7.964;2022-12-07T05:45:03;100048.44;;;7.20;64.49
29215;BME280;16252;49.816;7.964;2022-12-07T05:47:29;100074.69;;;7.40;64.48
29215;BME280;16252;49.816;7.964;2022-12-07T05:49:54;100035.50;;;7.13;64.61
29215;BME280;16252;49.816;7.964;2022-12-07T05:52:19;100054.91;;;7.30;64.53
29215;BME280;16252;49.816;7.964;2022-12-07T05:54:45;100054.78;;;7.31;64.49
29215;BME280;16252;49.816;7.964;2022-12-07T05:57:10;100041.03;;;7.25;64.68
29215;BME280;16252;49.816;7.964;2022-12-07T05:59:35;100061.84;;;7.32;64.69
29215;BME280;16252;49.816;7.964;2022-12-07T06:02:06;100058.91;;;7.37;64.71
29215;BME280;16252;49.816;7.964;2022-12-07T06:04:35;100057.09;;;7.37;64.73
29215;BME280;16252;49.816;7.964;2022-12-07T06:07:01;100075.13;;;7.47;64.76
29215;BME280;16252;49.816;7.964;2022-12-07T06:09:27;100029.22;;;7.29;64.64
29215;BME280;16252;49.816;7.964;2022-12-07T06:11:54;100043.00;;;7.35;64.63
29215;BME280;16252;49.816;7.964;2022-12-07T06:14:38;100036.06;;;7.33;64.75
29215;BME280;16252;49.816;7.964;2022-12-07T06:17:04;100065.16;;;7.50;64.83
29215;BME280;16252;49.816;7.964;2022-12-07T06:19:29;100047.94;;;7.42;64.71
29215;BME280;16252;49.816;7.964;2022-12-07T06:21:55;100046.25;;;7.41;64.81
29215;BME280;16252;49.816;7.964;2022-12-07T06:24:20;100050.78;;;7.38;64.81
29215;BME280;16252;49.816;7.964;2022-12-07T06:26:46;100058.50;;;7.43;64.83
29215;BME280;16252;49.816;7.964;2022-12-07T06:29:12;100058.50;;;7.43;64.86
29215;BME280;16252;49.816;7.964;2022-12-07T06:31:38;100021.53;;;7.24;64.76
29215;BME280;16252;49.816;7.964;2022-12-07T06:34:06;100065.25;;;7.49;64.71
29215;BME280;16252;49.816;7.964;2022-12-07T06:36:32;100058.59;;;7.42;64.72
29215;BME280;16252;49.816;7.964;2022-12-07T06:38:57;100055.34;;;7.36;64.74
29215;BME280;16252;49.816;7.964;2022-12-07T06:41:23;100047.75;;;7.30;64.74
29215;BME280;16252;49.816;7.964;2022-12-07T06:43:48;100067.53;;;7.41;64.73
29215;BME280;16252;49.816;7.964;2022-12-07T06:46:15;100052.91;;;7.33;64.55
29215;BME280;16252;49.816;7.964;2022-12-07T06:48:41;100039.22;;;7.25;64.66
29215;BME280;16252;49.816;7.964;2022-12-07T06:51:07;100055.66;;;7.32;64.90
29215;BME280;16252;49.816;7.964;2022-12-07T06:53:32;100061.84;;;7.32;64.65
29215;BME280;16252;49.816;7.964;2022-12-07T06:55:57;100060.31;;;7.28;64.54
29215;BME280;16252;49.816;7.964;2022-12-07T06:58:23;100064.13;;;7.24;64.43
29215;BME280;16252;49.816;7.964;2022-12-07T07:00:49;100074.56;;;7.27;64.49
29215;BME280;16252;49.816;7.964;2022-12-07T07:03:17;100061.25;;;7.13;64.33
29215;BME280;16252;49.816;7.964;2022-12-07T07:05:43;100079.97;;;7.26;64.52
29215;BME280;16252;49.816;7.964;2022-12-07T07:08:09;100053.81;;;7.04;64.76
29215;BME280;16252;49.816;7.964;2022-12-07T07:10:34;100070.34;;;7.09;64.75
29215;BME280;16252;49.816;7.964;2022-12-07T07:13:00;100042.78;;;6.95;64.92
29215;BME280;16252;49.816;7.964;2022-12-07T07:15:25;100073.69;;;7.12;64.80
29215;BME280;16252;49.816;7.964;2022-12-07T07:17:50;100068.47;;;7.11;64.83
29215;BME280;16252;49.816;7.964;2022-12-07T07:20:16;100046.22;;;6.98;64.91
29215;BME280;16252;49.816;7.964;2022-12-07T07:22:41;100080.38;;;7.20;64.89
29215;BME280;16252;49.816;7.964;2022-12-07T07:25:07;100082.19;;;7.19;65.04
29215;BME280;16252;49.816;7.964;2022-12-07T07:27:32;100064.56;;;7.02;65.07
29215;BME280;16252;49.816;7.964;2022-12-07T07:29:57;100067.13;;;7.04;65.08
29215;BME280;16252;49.816;7.964;2022-12-07T07:32:23;100082.81;;;7.08;65.04
29215;BME280;16252;49.816;7.964;2022-12-07T07:34:48;100068.28;;;7.00;64.99
29215;BME280;16252;49.816;7.964;2022-12-07T07:37:13;100045.84;;;6.89;65.16
29215;BME280;16252;49.816;7.964;2022-12-07T07:39:39;100094.59;;;7.19;65.06
29215;BME280;16252;49.816;7.964;2022-12-07T07:42:05;100093.19;;;7.13;65.11
29215;BME280;16252;49.816;7.964;2022-12-07T07:44:32;100070.81;;;7.01;65.07
29215;BME280;16252;49.816;7.964;2022-12-07T07:46:58;100096.34;;;7.20;65.15
29215;BME280;16252;49.816;7.964;2022-12-07T07:49:23;100090.31;;;7.16;65.32
29215;BME280;16252;49.816;7.964;2022-12-07T07:51:48;100096.34;;;7.20;65.06
29215;BME280;16252;49.816;7.964;2022-12-07T07:54:13;100058.28;;;7.03;65.23
29215;BME280;16252;49.816;7.964;2022-12-07T07:56:39;100100.22;;;7.28;65.16
29215;BME280;16252;49.816;7.964;2022-12-07T07:59:04;100080.44;;;7.18;65.39
29215;BME280;16252;49.816;7.964;2022-12-07T08:01:29;100061.53;;;7.08;64.97
29215;BME280;16252;49.816;7.964;2022-12-07T08:03:54;100083.69;;;7.23;65.00
29215;BME280;16252;49.816;7.964;2022-12-07T08:06:20;99920.56;;;6.21;64.72
29215;BME280;16252;49.816;7.964;2022-12-07T08:08:45;100112.69;;;7.28;64.88
29215;BME280;16252;49.816;7.964;2022-12-07T08:11:10;100118.78;;;7.30;64.86
29215;BME280;16252;49.816;7.964;2022-12-07T08:13:36;100101.75;;;7.18;65.07
29215;BME280;16252;49.816;7.964;2022-12-07T08:16:07;100110.28;;;7.23;64.96
29215;BME280;16252;49.816;7.964;2022-12-07T08:18:37;100096.81;;;7.12;65.12
29215;BME280;16252;49.816;7.964;2022-12-07T08:21:04;100077.03;;;7.02;64.85
29215;BME280;16252;49.816;7.964;2022-12-07T08:23:30;100112.38;;;7.18;65.12
29215;BME280;16252;49.816;7.964;2022-12-07T08:26:00;100046.66;;;6.76;65.10
29215;BME280;16252;49.816;7.964;2022-12-07T08:28:27;100104.56;;;7.01;65.06
29215;BME280;16252;49.816;7.964;2022-12-07T08:30:52;100129.66;;;7.11;65.21
29215;BME280;16252;49.816;7.964;2022-12-07T08:33:17;100101.63;;;7.05;65.44
29215;BME280;16252;49.816;7.964;2022-12-07T08:35:42;100110.19;;;7.10;65.61
29215;BME280;16252;49.816;7.964;2022-12-07T08:38:08;100080.81;;;6.98;65.42
29215;BME280;16252;49.816;7.964;2022-12-07T08:40:33;100107.44;;;7.12;65.48
29215;BME280;16252;49.816;7.964;2022-12-07T08:42:58;100113.06;;;7.22;65.39
29215;BME280;16252;49.816;7.964;2022-12-07T08:45:24;100123.59;;;7.23;65.36
29215;BME280;16252;49.816;7.964;2022-12-07T08:47:54;100098.88;;;7.07;65.38
29215;BME280;16252;49.816;7.964;2022-12-07T08:50:21;100084.44;;;6.97;65.55
29215;BME280;16252;49.816;7.964;2022-12-07T08:52:50;100080.72;;;6.99;65.81
29215;BME280;16252;49.816;7.964;2022-12-07T08:55:17;100119.72;;;7.29;66.01
29215;BME280;16252;49.816;7.964;2022-12-07T08:57:42;100105.56;;;7.28;65.99
29215;BME280;16252;49.816;7.964;2022-12-07T09:00:08;100069.81;;;7.18;65.92
29215;BME280;16252;49.816;7.964;2022-12-07T09:02:34;100123.25;;;7.58;66.04
29215;BME280;16252;49.816;7.964;2022-12-07T09:04:59;100075.03;;;7.34;65.89
29215;BME280;16252;49.816;7.964;2022-12-07T09:07:25;100143.34;;;7.78;65.83
29215;BME280;16252;49.816;7.964;2022-12-07T09:09:51;100126.09;;;7.84;65.80
29215;BME280;16252;49.816;7.964;2022-12-07T09:12:16;100124.00;;;7.89;65.90
29215;BME280;16252;49.816;7.964;2022-12-07T09:14:41;100113.72;;;7.97;65.72
29215;BME280;16252;49.816;7.964;2022-12-07T09:17:09;100131.22;;;8.15;65.23
29215;BME280;16252;49.816;7.964;2022-12-07T09:19:35;100135.28;;;8.21;65.39
29215;BME280;16252;49.816;7.964;2022-12-07T09:22:01;100134.03;;;8.27;64.94
29215;BME280;16252;49.816;7.964;2022-12-07T09:24:26;100108.84;;;8.18;64.82
29215;BME280;16252;49.816;7.964;2022-12-07T09:26:51;100055.78;;;7.86;64.57
29215;BME280;16252;49.816;7.964;2022-12-07T09:29:16;100101.88;;;8.15;64.31
29215;BME280;16252;49.816;7.964;2022-12-07T09:31:42;100105.84;;;8.22;64.36
29215;BME280;16252;49.816;7.964;2022-12-07T09:34:07;100128.09;;;8.36;64.22
29215;BME280;16252;49.816;7.964;2022-12-07T09:36:32;100140.66;;;8.48;64.34
29215;BME280;16252;49.816;7.964;2022-12-07T09:38:58;100120.84;;;8.38;64.03
29215;BME280;16252;49.816;7.964;2022-12-07T09:41:25;100135.88;;;8.53;64.01
29215;BME280;16252;49.816;7.964;2022-12-07T09:43:53;100116.84;;;8.45;64.06
29215;BME280;16252;49.816;7.964;2022-12-07T09:46:21;100124.94;;;8.71;63.92
29215;BME280;16252;49.816;7.964;2022-12-07T09:48:48;100129.19;;;8.60;63.46
29215;BME280;16252;49.816;7.964;2022-12-07T09:51:15;100117.88;;;8.57;63.53
29215;BME280;16252;49.816;7.964;2022-12-07T09:53:41;100121.69;;;8.53;63.23
29215;BME280;16252;49.816;7.964;2022-12-07T09:56:16;100060.09;;;8.16;63.01
29215;BME280;16252;49.816;7.964;2022-12-07T09:58:42;100092.56;;;8.35;63.22
29215;BME280;16252;49.816;7.964;2022-12-07T10:01:13;100097.72;;;8.38;63.13
29215;BME280;16252;49.816;7.964;2022-12-07T10:03:45;100123.28;;;8.55;63.08
29215;BME280;16252;49.816;7.964;2022-12-07T10:06:13;100102.19;;;8.38;63.28
29215;BME280;16252;49.816;7.964;2022-12-07T10:08:39;100115.72;;;8.49;63.28
29215;BME280;16252;49.816;7.964;2022-12-07T10:11:06;100117.41;;;8.50;63.23
29215;BME280;16252;49.816;7.964;2022-12-07T10:13:45;100104.75;;;8.54;63.07
29215;BME280;16252;49.816;7.964;2022-12-07T10:18:52;100042.84;;;8.21;63.25
29215;BME280;16252;49.816;7.964;2022-12-07T10:21:19;100076.22;;;8.41;63.43
29215;BME280;16252;49.816;7.964;2022-12-07T10:23:59;100092.00;;;8.72;63.46
29215;BME280;16252;49.816;7.964;2022-12-07T10:26:49;100087.63;;;8.83;63.35
29215;BME280;16252;49.816;7.964;2022-12-07T10:31:52;100078.91;;;8.94;62.94
29215;BME280;16252;49.816;7.964;2022-12-07T10:34:28;100068.88;;;8.98;62.86
29215;BME280;16252;49.816;7.964;2022-12-07T10:37:11;100055.63;;;8.96;62.28
29215;BME280;16252;49.816;7.964;2022-12-07T10:42:18;100080.75;;;9.32;62.58
29215;BME280;16252;49.816;7.964;2022-12-07T10:44:44;100057.88;;;9.28;63.12
29215;BME280;16252;49.816;7.964;2022-12-07T10:47:43;100028.28;;;9.31;62.48
29215;BME280;16252;49.816;7.964;2022-12-07T10:53:11;100042.34;;;9.59;61.95
29215;BME280;16252;49.816;7.964;2022-12-07T11:01:54;100056.03;;;10.04;61.74
29215;BME280;16252;49.816;7.964;2022-12-07T11:04:38;100059.84;;;10.12;61.49
29215;BME280;16252;49.816;7.964;2022-12-07T11:07:34;100055.00;;;10.17;61.09
29215;BME280;16252;49.816;7.964;2022-12-07T11:10:44;100048.06;;;10.15;60.89
29215;BME280;16252;49.816;7.964;2022-12-07T11:13:29;100006.38;;;9.88;60.88
29215;BME280;16252;49.816;7.964;2022-12-07T11:19:32;100046.38;;;10.14;61.27
29215;BME280;16252;49.816;7.964;2022-12-07T11:22:14;100044.78;;;10.11;60.73
29215;BME280;16252;49.816;7.964;2022-12-07T11:27:24;100028.66;;;10.00;60.90
29215;BME280;16252;49.816;7.964;2022-12-07T11:30:06;100004.53;;;9.89;60.62
29215;BME280;16252;49.816;7.964;2022-12-07T11:32:53;100025.53;;;10.06;60.74
29215;BME280;16252;49.816;7.964;2022-12-07T11:37:58;100009.31;;;9.96;60.63
29215;BME280;16252;49.816;7.964;2022-12-07T11:40:29;100023.84;;;10.05;60.70
29215;BME280;16252;49.816;7.964;2022-12-07T11:43:01;100001.53;;;9.93;60.53
29215;BME280;16252;49.816;7.964;2022-12-07T11:45:32;100020.19;;;10.06;60.60
29215;BME280;16252;49.816;7.964;2022-12-07T11:48:02;100011.34;;;10.06;60.89
29215;BME280;16252;49.816;7.964;2022-12-07T11:50:42;100013.31;;;10.15;60.67
29215;BME280;16252;49.816;7.964;2022-12-07T11:56:05;100011.28;;;10.18;60.24
29215;BME280;16252;49.816;7.964;2022-12-07T12:03:48;100012.53;;;10.26;60.42
29215;BME280;16252;49.816;7.964;2022-12-07T12:06:15;100006.53;;;10.22;60.05
29215;BME280;16252;49.816;7.964;2022-12-07T12:14:11;100000.81;;;10.15;59.07
29215;BME280;16252;49.816;7.964;2022-12-07T12:19:35;99987.44;;;9.91;59.16
29215;BME280;16252;49.816;7.964;2022-12-07T12:22:20;99936.34;;;9.59;58.62
29215;BME280;16252;49.816;7.964;2022-12-07T12:24:50;99969.09;;;9.74;58.68
29215;BME280;16252;49.816;7.964;2022-12-07T12:27:29;99995.56;;;9.90;59.04
29215;BME280;16252;49.816;7.964;2022-12-07T12:29:59;99987.75;;;9.87;58.86
29215;BME280;16252;49.816;7.964;2022-12-07T12:32:38;99977.72;;;9.90;58.90
29215;BME280;16252;49.816;7.964;2022-12-07T12:35:31;99985.28;;;9.96;59.18
29215;BME280;16252;49.816;7.964;2022-12-07T12:38:34;99977.03;;;9.99;58.98
29215;BME280;16252;49.816;7.964;2022-12-07T12:44:01;99962.34;;;9.81;58.53
29215;BME280;16252;49.816;7.964;2022-12-07T12:51:58;99958.94;;;9.79;58.44
29215;BME280;16252;49.816;7.964;2022-12-07T12:54:29;99946.09;;;9.60;58.25
29215;BME280;16252;49.816;7.964;2022-12-07T12:56:59;99960.06;;;9.64;58.99
29215;BME280;16252;49.816;7.964;2022-12-07T12:59:32;99938.72;;;9.51;58.74
29215;BME280;16252;49.816;7.964;2022-12-07T13:02:16;99960.06;;;9.64;58.61
29215;BME280;16252;49.816;7.964;2022-12-07T13:17:59;99915.53;;;9.27;58.71
29215;BME280;16252;49.816;7.964;2022-12-07T13:20:48;99938.22;;;9.46;58.76
29215;BME280;16252;49.816;7.964;2022-12-07T13:23:18;99888.34;;;9.09;58.65
29215;BME280;16252;49.816;7.964;2022-12-07T13:28:40;99907.31;;;9.18;58.68
29215;BME280;16252;49.816;7.964;2022-12-07T13:31:11;99932.69;;;9.36;59.04
29215;BME280;16252;49.816;7.964;2022-12-07T13:33:38;99929.72;;;9.28;59.01
29215;BME280;16252;49.816;7.964;2022-12-07T13:36:03;99939.66;;;9.26;59.16
29215;BME280;16252;49.816;7.964;2022-12-07T13:38:33;99940.81;;;9.35;58.61
29215;BME280;16252;49.816;7.964;2022-12-07T13:43:29;99934.63;;;9.21;59.13
29215;BME280;16252;49.816;7.964;2022-12-07T13:45:58;99926.84;;;9.18;58.49
29215;BME280;16252;49.816;7.964;2022-12-07T13:48:43;99934.84;;;9.31;58.73
29215;BME280;16252;49.816;7.964;2022-12-07T13:51:17;99932.41;;;9.28;58.51
29215;BME280;16252;49.816;7.964;2022-12-07T13:53:51;99898.69;;;9.01;58.71
29215;BME280;16252;49.816;7.964;2022-12-07T13:56:16;99915.78;;;9.11;59.01
29215;BME280;16252;49.816;7.964;2022-12-07T14:01:09;99924.09;;;9.20;59.15
29215;BME280;16252;49.816;7.964;2022-12-07T14:03:35;99909.66;;;9.22;59.21
29215;BME280;16252;49.816;7.964;2022-12-07T14:06:05;99933.66;;;9.35;59.36
29215;BME280;16252;49.816;7.964;2022-12-07T14:08:31;99893.38;;;9.14;59.27
29215;BME280;16252;49.816;7.964;2022-12-07T14:10:57;99840.38;;;8.84;59.26
29215;BME280;16252;49.816;7.964;2022-12-07T14:15:57;99849.94;;;8.99;59.17
29215;BME280;16252;49.816;7.964;2022-12-07T14:21:05;99930.63;;;9.52;58.87
29215;BME280;16252;49.816;7.964;2022-12-07T14:23:30;99900.03;;;9.32;59.35
29215;BME280;16252;49.816;7.964;2022-12-07T14:26:15;99894.34;;;9.37;58.87
29215;BME280;16252;49.816;7.964;2022-12-07T14:28:42;99886.03;;;9.29;59.04
29215;BME280;16252;49.816;7.964;2022-12-07T14:31:13;99902.97;;;9.41;58.87
29215;BME280;16252;49.816;7.964;2022-12-07T14:33:39;99923.78;;;9.48;59.03
29215;BME280;16252;49.816;7.964;2022-12-07T14:36:05;99875.53;;;9.15;59.00
29215;BME280;16252;49.816;7.964;2022-12-07T14:38:30;99888.19;;;9.24;59.13
29215;BME280;16252;49.816;7.964;2022-12-07T14:40:56;99877.22;;;9.16;59.12
29215;BME280;16252;49.816;7.964;2022-12-07T14:43:44;99901.09;;;9.30;59.19
29215;BME280;16252;49.816;7.964;2022-12-07T14:46:10;99903.88;;;9.28;59.31
29215;BME280;16252;49.816;7.964;2022-12-07T14:48:35;99888.63;;;9.18;59.47
29215;BME280;16252;49.816;7.964;2022-12-07T14:51:00;99885.34;;;9.14;59.26
29215;BME280;16252;49.816;7.964;2022-12-07T14:53:33;99899.19;;;9.32;58.94
29215;BME280;16252;49.816;7.964;2022-12-07T14:56:00;99908.03;;;9.32;59.38
29215;BME280;16252;49.816;7.964;2022-12-07T14:58:25;99877.34;;;9.14;59.54
29215;BME280;16252;49.816;7.964;2022-12-07T15:00:50;99856.56;;;9.06;59.30